Time;durP1;ratioP1;P1;durP2;ratioP2;P2;SDS_P1;SDS_P2;PMS_P1;PMS_P2;Temp;Humidity;BMP_temperature;BMP_pressure;BME280_temperature;BME280_humidity;BME280_pressure;Samples;Min_cycle;Max_cycle;Signal;HPM_P1;HPM_P2
2022/05/09 00:01:19;;;;;;;4.22;2.30;;;6.30;99.90;;;;;;5051651;28;20064;-77
2022/05/09 00:03:45;;;;;;;6.10;2.55;;;6.10;99.90;;;;;;5051981;28;20048;-77
2022/05/09 00:06:11;;;;;;;3.13;2.50;;;6.10;99.90;;;;;;5050417;28;20013;-77
2022/05/09 00:08:39;;;;;;;6.10;2.27;;;6.00;99.90;;;;;;5049706;28;20505;-77
2022/05/09 00:11:06;;;;;;;7.20;3.00;;;5.90;99.90;;;;;;5035025;28;20099;-77
2022/05/09 00:13:31;;;;;;;5.80;2.13;;;5.80;99.90;;;;;;5058247;28;20411;-77
2022/05/09 00:15:57;;;;;;;3.77;2.57;;;5.70;99.90;;;;;;5051157;28;20089;-76
2022/05/09 00:18:23;;;;;;;4.13;2.63;;;5.60;99.90;;;;;;5051643;28;20025;-77
2022/05/09 00:20:48;;;;;;;2.53;1.93;;;5.50;99.90;;;;;;5044027;28;20017;-77
2022/05/09 00:23:14;;;;;;;7.43;2.30;;;5.50;99.90;;;;;;5050740;28;20468;-77
2022/05/09 00:25:40;;;;;;;5.65;2.92;;;5.50;99.90;;;;;;5051539;28;20056;-77
2022/05/09 00:28:06;;;;;;;2.17;1.97;;;5.50;99.90;;;;;;5051285;28;20048;-76
2022/05/09 00:30:32;;;;;;;5.77;2.93;;;5.40;99.90;;;;;;5051275;28;20031;-76
2022/05/09 00:32:58;;;;;;;2.70;2.17;;;5.30;99.90;;;;;;5051262;28;20465;-77
2022/05/09 00:35:24;;;;;;;6.73;2.53;;;5.40;99.90;;;;;;5051460;28;20075;-76
2022/05/09 00:37:49;;;;;;;5.37;3.10;;;5.40;99.90;;;;;;5051118;28;20025;-76
2022/05/09 00:40:16;;;;;;;3.50;2.03;;;5.30;99.90;;;;;;5050571;28;20067;-77
2022/05/09 00:42:50;;;;;;;5.33;2.43;;;5.20;99.90;;;;;;5050496;28;20032;-77
2022/05/09 00:45:18;;;;;;;4.17;2.47;;;5.10;99.90;;;;;;5051152;28;20025;-77
2022/05/09 00:47:45;;;;;;;11.57;2.70;;;5.10;99.90;;;;;;5050927;28;20072;-77
2022/05/09 00:50:16;;;;;;;6.53;2.80;;;5.20;99.90;;;;;;5050852;28;20044;-76
2022/05/09 00:52:52;;;;;;;4.93;2.67;;;5.20;99.90;;;;;;5049866;28;20070;-77
2022/05/09 00:55:37;;;;;;;2.67;2.07;;;5.10;99.90;;;;;;5057699;28;20036;-77
2022/05/09 00:58:10;;;;;;;3.03;2.33;;;5.10;99.90;;;;;;5043579;28;20017;-76
2022/05/09 01:00:35;;;;;;;5.00;2.63;;;5.10;99.90;;;;;;5050800;28;20017;-76
2022/05/09 01:03:07;;;;;;;5.63;2.90;;;5.10;99.90;;;;;;5073067;22;20047;-76
2022/05/09 01:05:33;;;;;;;2.92;2.38;;;5.10;99.90;;;;;;5070086;28;20033;-76
2022/05/09 01:07:59;;;;;;;6.93;2.83;;;5.00;99.90;;;;;;5068669;28;20098;-76
2022/05/09 01:10:31;;;;;;;10.07;2.73;;;5.00;99.90;;;;;;5069691;28;20098;-76
2022/05/09 01:13:04;;;;;;;5.27;2.80;;;4.90;99.90;;;;;;5061272;28;20422;-75
2022/05/09 01:15:30;;;;;;;7.67;2.83;;;4.90;99.90;;;;;;5050004;28;20075;-76
2022/05/09 01:17:57;;;;;;;5.97;3.50;;;4.90;99.90;;;;;;5049487;28;20024;-76
2022/05/09 01:20:23;;;;;;;6.67;2.77;;;4.90;99.90;;;;;;5049602;28;20017;-76
2022/05/09 01:22:48;;;;;;;7.13;3.70;;;4.90;99.90;;;;;;5048573;28;20127;-77
2022/05/09 01:25:16;;;;;;;3.60;2.40;;;4.80;99.90;;;;;;5049214;28;20390;-76
2022/05/09 01:27:44;;;;;;;4.90;2.70;;;4.80;99.90;;;;;;5049257;28;20025;-76
2022/05/09 01:30:15;;;;;;;4.87;2.33;;;4.90;99.90;;;;;;5049849;28;20021;-76
2022/05/09 01:32:46;;;;;;;2.77;2.57;;;4.80;99.90;;;;;;5049792;28;20017;-76
2022/05/09 01:35:28;;;;;;;5.50;3.17;;;4.80;99.90;;;;;;5049076;28;20029;-77
2022/05/09 01:38:06;;;;;;;5.57;2.92;;;4.90;99.90;;;;;;5049474;28;20031;-76
2022/05/09 01:40:31;;;;;;;9.87;3.23;;;4.90;99.90;;;;;;5049563;28;20694;-76
2022/05/09 01:42:57;;;;;;;5.90;3.27;;;4.90;99.90;;;;;;5049351;28;20029;-76
2022/05/09 01:45:23;;;;;;;5.47;3.03;;;4.90;99.90;;;;;;5049538;28;20036;-76
2022/05/09 01:50:33;;;;;;;7.73;3.17;;;4.90;99.90;;;;;;5049108;28;20464;-76
2022/05/09 01:52:59;;;;;;;3.13;2.50;;;4.90;99.90;;;;;;5048894;28;20025;-76
2022/05/09 01:55:24;;;;;;;3.20;2.87;;;5.00;99.90;;;;;;5050225;28;20021;-76
2022/05/09 01:57:50;;;;;;;5.30;3.20;;;5.00;99.90;;;;;;5052740;28;20028;-76
2022/05/09 02:00:17;;;;;;;7.87;3.00;;;5.10;99.90;;;;;;5046031;28;20463;-76
2022/05/09 02:02:43;;;;;;;6.33;3.50;;;5.20;99.90;;;;;;5053480;28;20037;-76
2022/05/09 02:05:09;;;;;;;4.83;3.33;;;5.10;99.90;;;;;;5053153;28;20453;-76
2022/05/09 02:07:35;;;;;;;5.60;3.23;;;5.30;99.90;;;;;;5053137;28;20020;-76
2022/05/09 02:10:01;;;;;;;4.17;3.17;;;5.30;99.90;;;;;;5053054;28;20013;-76
2022/05/09 02:12:27;;;;;;;4.53;2.97;;;5.50;99.90;;;;;;5052445;28;20083;-76
2022/05/09 02:14:53;;;;;;;6.50;3.20;;;5.60;99.90;;;;;;5052914;28;20512;-76
2022/05/09 02:17:19;;;;;;;6.17;3.43;;;5.60;99.90;;;;;;5057436;28;20025;-76
2022/05/09 02:19:45;;;;;;;6.20;3.03;;;5.50;99.90;;;;;;5052559;28;20363;-76
2022/05/09 02:22:12;;;;;;;9.30;3.67;;;5.40;99.90;;;;;;5053032;28;20028;-76
2022/05/09 02:24:39;;;;;;;8.33;3.53;;;5.30;99.90;;;;;;5052977;28;20047;-76
2022/05/09 02:27:06;;;;;;;9.60;4.00;;;5.30;99.90;;;;;;5052970;28;20409;-76
2022/05/09 02:29:32;;;;;;;4.80;3.13;;;5.20;99.90;;;;;;5052463;28;20013;-76
2022/05/09 02:32:02;;;;;;;5.67;3.00;;;5.10;99.90;;;;;;5052445;28;20481;-76
2022/05/09 02:34:41;;;;;;;5.97;3.47;;;5.10;99.90;;;;;;5049198;28;20048;-75
2022/05/09 02:37:06;;;;;;;5.97;3.77;;;5.10;99.90;;;;;;5051410;28;20021;-74
2022/05/09 02:39:32;;;;;;;5.97;3.47;;;5.00;99.90;;;;;;5052012;28;20118;-75
2022/05/09 02:41:59;;;;;;;6.03;3.50;;;4.90;99.90;;;;;;5050805;28;20033;-75
2022/05/09 02:44:25;;;;;;;5.53;3.40;;;5.00;99.90;;;;;;5052403;28;20021;-74
2022/05/09 02:46:51;;;;;;;8.03;3.40;;;4.90;99.90;;;;;;5052360;28;20067;-75
2022/05/09 02:49:18;;;;;;;5.63;3.57;;;4.90;99.90;;;;;;5052218;28;20029;-75
2022/05/09 02:51:44;;;;;;;7.83;3.70;;;4.80;99.90;;;;;;5052804;28;20409;-75
2022/05/09 02:54:10;;;;;;;5.67;3.57;;;4.70;99.90;;;;;;5050186;28;20374;-75
2022/05/09 02:56:35;;;;;;;5.77;3.30;;;4.60;99.90;;;;;;5052156;28;20025;-75
2022/05/09 02:59:01;;;;;;;5.27;3.23;;;4.50;99.90;;;;;;5052579;28;20389;-75
2022/05/09 03:01:27;;;;;;;7.37;3.70;;;4.40;99.90;;;;;;5052168;28;20370;-75
2022/05/09 03:06:37;;;;;;;8.20;3.50;;;4.50;99.90;;;;;;5051407;28;20430;-75
2022/05/09 03:09:03;;;;;;;11.40;3.73;;;4.40;99.90;;;;;;5051998;28;20025;-74
2022/05/09 03:11:28;;;;;;;7.10;3.20;;;4.30;99.90;;;;;;5051939;28;20139;-74
2022/05/09 03:13:54;;;;;;;3.93;3.23;;;4.30;99.90;;;;;;5051833;28;20017;-74
2022/05/09 03:16:20;;;;;;;8.70;3.13;;;4.30;99.90;;;;;;5052139;28;20017;-74
2022/05/09 03:18:47;;;;;;;4.20;3.40;;;4.20;99.90;;;;;;5050505;28;20028;-75
2022/05/09 03:21:13;;;;;;;9.53;3.77;;;4.10;99.90;;;;;;5051599;28;20013;-75
2022/05/09 03:23:38;;;;;;;7.10;3.90;;;4.10;99.90;;;;;;5051936;28;20123;-75
2022/05/09 03:26:04;;;;;;;6.20;3.37;;;3.90;99.90;;;;;;5051714;28;20465;-74
2022/05/09 03:28:30;;;;;;;4.80;3.27;;;3.90;99.90;;;;;;5051625;28;20458;-74
2022/05/09 03:30:57;;;;;;;4.60;3.20;;;3.80;99.90;;;;;;5051925;28;20020;-74
2022/05/09 03:33:26;;;;;;;4.13;3.10;;;3.80;99.90;;;;;;5071948;22;20049;-75
2022/05/09 03:35:52;;;;;;;7.77;3.77;;;3.70;99.90;;;;;;5050003;28;20031;-75
2022/05/09 03:38:19;;;;;;;4.63;3.47;;;3.80;99.90;;;;;;5051342;28;20100;-74
2022/05/09 03:40:45;;;;;;;6.30;3.60;;;3.80;99.90;;;;;;5051387;28;20036;-74
2022/05/09 03:43:11;;;;;;;5.17;3.80;;;3.80;99.90;;;;;;5050830;28;20037;-74
2022/05/09 03:45:40;;;;;;;7.17;3.93;;;3.80;99.90;;;;;;5051395;28;20025;-74
2022/05/09 03:48:06;;;;;;;6.87;4.10;;;3.90;99.90;;;;;;5051698;28;20028;-74
2022/05/09 03:50:32;;;;;;;9.67;4.20;;;3.80;99.90;;;;;;5050961;28;20025;-74
2022/05/09 03:52:57;;;;;;;7.40;3.20;;;3.70;99.90;;;;;;5050720;28;20156;-74
2022/05/09 03:55:23;;;;;;;7.23;4.33;;;3.70;99.90;;;;;;5051553;28;20100;-75
2022/05/09 03:57:55;;;;;;;7.80;4.37;;;3.60;99.90;;;;;;5051258;28;20040;-74
2022/05/09 04:00:24;;;;;;;4.85;3.45;;;3.50;99.90;;;;;;5051073;28;20051;-75
2022/05/09 04:02:50;;;;;;;6.37;3.60;;;3.50;99.90;;;;;;5050753;28;20090;-74
2022/05/09 04:05:17;;;;;;;7.50;4.63;;;3.50;99.90;;;;;;5051120;28;20021;-75
2022/05/09 04:07:51;;;;;;;6.03;3.60;;;3.40;99.90;;;;;;5050883;28;20070;-75
2022/05/09 04:10:22;;;;;;;9.07;3.73;;;3.40;99.90;;;;;;5051215;28;20017;-74
2022/05/09 04:12:48;;;;;;;8.10;4.03;;;3.30;99.90;;;;;;5051162;28;20508;-75
2022/05/09 04:17:59;;;;;;;5.30;3.97;;;3.50;99.90;;;;;;5043796;28;20635;-75
2022/05/09 04:20:28;;;;;;;7.97;3.77;;;3.50;99.90;;;;;;5050610;28;20021;-75
2022/05/09 04:22:54;;;;;;;10.77;4.37;;;3.50;99.90;;;;;;5049502;28;20094;-74
2022/05/09 04:25:21;;;;;;;7.77;4.17;;;3.50;99.90;;;;;;5050744;28;20110;-75
2022/05/09 04:27:47;;;;;;;6.80;3.17;;;3.50;99.90;;;;;;5050665;28;20035;-75
2022/05/09 04:30:14;;;;;;;5.17;3.73;;;3.50;99.90;;;;;;5050187;28;20013;-74
2022/05/09 04:32:40;;;;;;;8.60;4.10;;;3.50;99.90;;;;;;5076510;22;21721;-74
2022/05/09 04:35:13;;;;;;;8.33;4.23;;;3.60;99.90;;;;;;5068535;28;20036;-74
2022/05/09 04:37:42;;;;;;;7.73;4.47;;;3.60;99.90;;;;;;5069937;28;20622;-74
2022/05/09 04:40:08;;;;;;;7.73;4.07;;;3.60;99.90;;;;;;5070229;28;20020;-77
2022/05/09 04:42:34;;;;;;;5.83;4.60;;;3.70;99.90;;;;;;5073353;28;20032;-77
2022/05/09 04:45:00;;;;;;;6.73;4.47;;;3.70;99.90;;;;;;5089518;28;20054;-77
2022/05/09 04:47:27;;;;;;;6.60;4.00;;;3.70;99.90;;;;;;5089964;28;20035;-77
2022/05/09 04:49:52;;;;;;;8.43;3.77;;;3.70;99.90;;;;;;5089826;28;20028;-77
2022/05/09 04:52:18;;;;;;;7.40;3.50;;;3.70;99.90;;;;;;5089638;28;20028;-77
2022/05/09 04:54:44;;;;;;;5.40;3.90;;;3.70;99.90;;;;;;5087875;28;20020;-77
2022/05/09 04:57:10;;;;;;;4.67;3.50;;;3.80;99.90;;;;;;5089964;28;20394;-77
2022/05/09 04:59:35;;;;;;;10.77;4.40;;;3.80;99.90;;;;;;5089331;28;20017;-77
2022/05/09 05:02:01;;;;;;;8.67;4.00;;;3.80;99.90;;;;;;5088916;28;20036;-77
2022/05/09 05:04:27;;;;;;;5.73;3.67;;;3.80;99.90;;;;;;5089547;28;20024;-76
2022/05/09 05:06:52;;;;;;;8.37;4.00;;;3.90;99.90;;;;;;5089440;28;20024;-74
2022/05/09 05:09:18;;;;;;;6.67;3.90;;;4.00;99.90;;;;;;5089187;28;20413;-77
2022/05/09 05:11:44;;;;;;;11.90;4.73;;;4.10;99.90;;;;;;5089443;28;20032;-73
2022/05/09 05:14:09;;;;;;;7.53;4.17;;;4.20;99.90;;;;;;5082391;28;20020;-74
2022/05/09 05:19:19;;;;;;;11.77;4.73;;;4.40;99.90;;;;;;5088945;28;20396;-74
2022/05/09 05:21:45;;;;;;;7.67;4.27;;;4.60;99.90;;;;;;5089213;28;20472;-74
2022/05/09 05:24:11;;;;;;;8.00;3.80;;;4.60;99.90;;;;;;5088405;28;20016;-76
2022/05/09 05:26:36;;;;;;;8.13;4.93;;;4.70;99.90;;;;;;5088935;28;20054;-76
2022/05/09 05:29:02;;;;;;;8.60;4.97;;;4.80;99.90;;;;;;5089238;28;20480;-77
2022/05/09 05:31:28;;;;;;;7.37;4.40;;;4.90;99.90;;;;;;5081835;28;20028;-77
2022/05/09 05:33:53;;;;;;;9.97;4.87;;;5.00;99.90;;;;;;5083658;22;20063;-75
2022/05/09 05:36:20;;;;;;;6.17;4.43;;;5.20;99.90;;;;;;5047575;28;20116;-75
2022/05/09 05:38:51;;;;;;;10.15;4.43;;;5.30;99.90;;;;;;5049569;28;20014;-75
2022/05/09 05:41:20;;;;;;;8.40;5.00;;;5.50;99.90;;;;;;5049480;28;20036;-74
2022/05/09 05:43:46;;;;;;;10.50;4.57;;;5.60;99.90;;;;;;5054754;28;20029;-75
2022/05/09 05:46:13;;;;;;;8.87;4.53;;;5.70;99.90;;;;;;5061777;28;20056;-75
2022/05/09 05:48:40;;;;;;;6.32;4.03;;;5.90;99.90;;;;;;5057142;28;20028;-75
2022/05/09 05:51:05;;;;;;;8.50;4.73;;;5.90;99.90;;;;;;5058009;28;20021;-75
2022/05/09 05:53:32;;;;;;;10.23;4.53;;;6.10;99.90;;;;;;5060111;28;20070;-75
2022/05/09 05:55:57;;;;;;;5.93;4.13;;;6.20;99.90;;;;;;5061103;28;20372;-75
2022/05/09 05:58:26;;;;;;;7.90;4.35;;;6.40;99.90;;;;;;5060731;28;20039;-75
2022/05/09 06:00:53;;;;;;;10.40;3.97;;;6.40;99.90;;;;;;5056411;28;20086;-75
2022/05/09 06:03:20;;;;;;;5.93;3.70;;;6.60;99.90;;;;;;5061224;28;20044;-75
2022/05/09 06:05:49;;;;;;;9.13;4.35;;;6.80;99.90;;;;;;5058573;28;20421;-75
2022/05/09 06:08:15;;;;;;;9.05;4.80;;;7.20;99.90;;;;;;5057355;28;20028;-75
2022/05/09 06:10:41;;;;;;;7.97;3.78;;;7.70;99.90;;;;;;5061882;28;20508;-75
2022/05/09 06:13:07;;;;;;;9.30;4.20;;;8.20;99.90;;;;;;5057686;28;20028;-75
2022/05/09 06:15:36;;;;;;;9.40;4.15;;;8.70;99.90;;;;;;5059430;28;20017;-75
2022/05/09 06:18:14;;;;;;;7.88;3.38;;;9.10;99.90;;;;;;5061269;28;20021;-76
2022/05/09 06:20:43;;;;;;;4.63;2.85;;;9.60;99.90;;;;;;5056853;28;20070;-75
2022/05/09 06:23:12;;;;;;;5.57;3.08;;;9.70;99.90;;;;;;5059968;28;20103;-75
2022/05/09 06:25:40;;;;;;;4.97;3.15;;;9.90;99.90;;;;;;5060800;28;20478;-75
2022/05/09 06:28:07;;;;;;;5.82;3.33;;;10.00;99.90;;;;;;5060999;28;20099;-75
2022/05/09 06:30:33;;;;;;;5.20;3.42;;;10.00;99.90;;;;;;5061517;28;20017;-75
2022/05/09 06:32:59;;;;;;;8.80;3.50;;;10.10;99.90;;;;;;5086596;23;20032;-75
2022/05/09 06:35:26;;;;;;;6.15;3.22;;;10.20;99.90;;;;;;5069128;28;20036;-74
2022/05/09 06:38:01;;;;;;;8.48;4.03;;;10.20;99.90;;;;;;5060725;28;20389;-75
2022/05/09 06:40:29;;;;;;;6.10;3.90;;;10.40;99.90;;;;;;5069292;28;20028;-75
2022/05/09 06:42:56;;;;;;;7.93;4.22;;;10.70;99.90;;;;;;5076298;28;20044;-75
2022/05/09 06:45:23;;;;;;;6.10;4.18;;;10.70;99.90;;;;;;5091100;28;20027;-75
2022/05/09 06:47:52;;;;;;;12.23;5.00;;;10.80;99.90;;;;;;5091452;28;20026;-75
2022/05/09 06:50:20;;;;;;;12.30;4.70;;;10.90;99.90;;;;;;5092152;28;20541;-75
2022/05/09 06:52:45;;;;;;;6.65;3.90;;;11.00;99.90;;;;;;5091334;28;20028;-75
2022/05/09 06:55:12;;;;;;;11.18;4.43;;;11.00;99.90;;;;;;5085206;28;20499;-75
2022/05/09 06:57:39;;;;;;;8.68;4.03;;;11.20;99.90;;;;;;5091792;28;20051;-75
2022/05/09 07:00:11;;;;;;;10.82;4.70;;;11.20;99.90;;;;;;5091150;28;20016;-75
2022/05/09 07:02:38;;;;;;;9.23;4.75;;;11.30;99.90;;;;;;5091595;28;20059;-75
2022/05/09 07:05:05;;;;;;;8.18;3.90;;;11.40;99.90;;;;;;5084090;28;20019;-75
2022/05/09 07:07:31;;;;;;;8.93;5.55;;;11.50;99.90;;;;;;5090889;28;20031;-75
2022/05/09 07:09:57;;;;;;;9.68;4.80;;;11.50;99.90;;;;;;5091420;28;20028;-75
2022/05/09 07:12:23;;;;;;;7.57;4.65;;;11.50;99.90;;;;;;5091241;28;20036;-75
2022/05/09 07:14:49;;;;;;;13.65;4.75;;;11.60;99.90;;;;;;5091322;28;20031;-75
2022/05/09 07:17:14;;;;;;;10.10;5.25;;;11.70;99.90;;;;;;5091577;28;20051;-75
2022/05/09 07:19:40;;;;;;;11.68;5.28;;;11.90;99.90;;;;;;5091222;28;20070;-75
2022/05/09 07:22:06;;;;;;;7.88;5.25;;;11.90;99.90;;;;;;5090916;28;20457;-75
2022/05/09 07:24:31;;;;;;;10.02;5.40;;;11.90;99.90;;;;;;5084414;28;20020;-74
2022/05/09 07:26:57;;;;;;;13.35;6.00;;;11.90;99.90;;;;;;5091897;28;20020;-75
2022/05/09 07:29:23;;;;;;;10.75;5.35;;;12.10;99.90;;;;;;5090701;28;20024;-75
2022/05/09 07:31:49;;;;;;;10.88;5.07;;;12.30;99.90;;;;;;5091308;28;20024;-75
2022/05/09 07:34:15;;;;;;;9.07;4.65;;;12.40;99.90;;;;;;5086717;22;20048;-75
2022/05/09 07:36:41;;;;;;;11.07;4.88;;;12.40;99.90;;;;;;5051327;28;20079;-75
2022/05/09 07:39:07;;;;;;;14.48;5.82;;;12.60;99.90;;;;;;5051310;28;20462;-76
2022/05/09 07:41:33;;;;;;;11.93;5.70;;;12.60;99.90;;;;;;5051650;28;20032;-75
2022/05/09 07:44:00;;;;;;;9.10;5.80;;;12.50;99.90;;;;;;5057308;28;20108;-75
2022/05/09 07:46:26;;;;;;;9.07;4.93;;;12.50;99.90;;;;;;5062285;28;20111;-75
2022/05/09 07:48:52;;;;;;;14.00;5.20;;;12.60;99.90;;;;;;5057548;28;20032;-75
2022/05/09 07:51:19;;;;;;;15.65;7.00;;;12.60;99.90;;;;;;5062452;28;20078;-75
2022/05/09 07:53:45;;;;;;;8.85;5.07;;;12.60;99.90;;;;;;5053923;28;20037;-75
2022/05/09 07:56:11;;;;;;;12.30;5.05;;;12.60;99.90;;;;;;5063631;28;20028;-75
2022/05/09 07:58:37;;;;;;;16.90;5.18;;;12.80;99.90;;;;;;5058877;28;20485;-75
2022/05/09 08:01:04;;;;;;;10.98;5.43;;;12.90;99.90;;;;;;5060268;28;20032;-75
2022/05/09 08:03:34;;;;;;;13.30;5.45;;;13.00;99.90;;;;;;5063559;28;20047;-75
2022/05/09 08:06:02;;;;;;;8.35;4.78;;;13.00;99.90;;;;;;5058263;28;20041;-75
2022/05/09 08:08:29;;;;;;;9.82;4.65;;;13.20;99.90;;;;;;5061270;28;20028;-76
2022/05/09 08:10:57;;;;;;;9.18;5.03;;;13.30;99.90;;;;;;5062194;28;20024;-75
2022/05/09 08:13:25;;;;;;;17.35;5.80;;;13.40;99.90;;;;;;5058622;28;20021;-75
2022/05/09 08:15:51;;;;;;;10.65;5.65;;;13.50;99.90;;;;;;5062288;28;20109;-75
2022/05/09 08:18:19;;;;;;;8.82;4.18;;;13.50;99.90;;;;;;5061601;28;20032;-75
2022/05/09 08:20:45;;;;;;;10.05;4.63;;;13.80;99.90;;;;;;5058336;28;20025;-75
2022/05/09 08:23:19;;;;;;;11.23;4.68;;;13.90;99.90;;;;;;5057490;28;20066;-75
2022/05/09 08:25:47;;;;;;;11.93;5.20;;;14.10;99.90;;;;;;5060887;28;20009;-75
2022/05/09 08:28:15;;;;;;;8.10;4.95;;;14.20;99.90;;;;;;5061907;28;20051;-75
2022/05/09 08:30:43;;;;;;;6.53;4.13;;;14.30;99.90;;;;;;5058036;28;20374;-75
2022/05/09 08:33:15;;;;;;;8.95;3.92;;;14.60;99.90;;;;;;5081807;23;20051;-76
2022/05/09 08:35:43;;;;;;;5.78;3.75;;;14.90;99.90;;;;;;5048548;28;20498;-76
2022/05/09 08:38:10;;;;;;;4.90;3.60;;;15.20;99.90;;;;;;5050353;28;20028;-75
2022/05/09 08:40:45;;;;;;;6.65;3.28;;;15.80;99.90;;;;;;5049900;28;20029;-75
2022/05/09 08:43:45;;;;;;;6.32;3.25;;;16.50;99.90;;;;;;5043644;28;20031;-76
2022/05/09 08:46:32;;;;;;;11.32;3.95;;;17.40;99.90;;;;;;5025258;28;20040;-76
2022/05/09 08:49:35;;;;;;;6.00;2.63;;;18.10;96.50;;;;;;5025629;28;20355;-76
2022/05/09 08:52:37;;;;;;;7.25;2.30;;;19.30;90.30;;;;;;5025908;28;20588;-76
2022/05/09 08:55:03;;;;;;;3.95;2.03;;;20.10;84.30;;;;;;5029594;28;20026;-76
2022/05/09 08:57:47;;;;;;;8.18;2.58;;;20.70;72.30;;;;;;5030878;28;20559;-76
2022/05/09 09:00:16;;;;;;;3.15;1.83;;;22.00;72.00;;;;;;5030439;28;20044;-76
2022/05/09 09:03:04;;;;;;;7.00;2.50;;;22.50;61.90;;;;;;5030022;28;20060;-76
2022/05/09 09:05:34;;;;;;;4.05;2.20;;;21.80;61.20;;;;;;5029967;28;20028;-77
2022/05/09 09:08:23;;;;;;;5.18;2.10;;;22.80;60.90;;;;;;5030243;28;20063;-77
2022/05/09 09:11:28;;;;;;;3.75;2.20;;;23.20;57.70;;;;;;5025707;28;20100;-77
2022/05/09 09:14:07;;;;;;;2.75;1.70;;;23.20;55.80;;;;;;5028498;28;20029;-77
2022/05/09 09:17:03;;;;;;;6.50;2.42;;;23.20;58.60;;;;;;5030225;28;20068;-77
2022/05/09 09:19:52;;;;;;;4.47;2.17;;;23.90;56.20;;;;;;5030134;28;20017;-77
2022/05/09 09:22:36;;;;;;;10.10;2.22;;;24.00;56.70;;;;;;5028626;28;20037;-77
2022/05/09 09:25:38;;;;;;;8.15;2.50;;;24.30;54.80;;;;;;5026671;28;20014;-77
2022/05/09 09:28:10;;;;;;;7.38;2.25;;;24.00;54.90;;;;;;5002349;28;20034;-77
2022/05/09 09:30:38;;;;;;;4.88;2.20;;;24.00;51.80;;;;;;5028794;28;20512;-76
2022/05/09 09:33:08;;;;;;;4.53;2.42;;;22.40;54.90;;;;;;5052945;22;20114;-76
2022/05/09 09:35:56;;;;;;;6.20;2.78;;;23.20;58.70;;;;;;5046787;28;20021;-76
2022/05/09 09:38:31;;;;;;;8.70;2.60;;;23.80;56.50;;;;;;5049764;28;20025;-76
2022/05/09 09:41:18;;;;;;;5.07;2.47;;;24.40;53.60;;;;;;5049683;28;20576;-76
2022/05/09 09:43:46;;;;;;;3.65;2.40;;;24.40;52.50;;;;;;5051389;28;20036;-76
2022/05/09 09:46:12;;;;;;;5.40;2.25;;;24.90;57.00;;;;;;5069122;28;20020;-76
2022/05/09 09:48:39;;;;;;;5.10;2.28;;;25.10;54.20;;;;;;5068733;28;20174;-76
2022/05/09 09:51:12;;;;;;;5.25;2.08;;;26.10;53.60;;;;;;5068779;28;20032;-77
2022/05/09 09:53:56;;;;;;;3.85;2.45;;;25.70;50.10;;;;;;5068891;28;20028;-76
2022/05/09 09:56:22;;;;;;;6.78;2.22;;;26.00;50.00;;;;;;5068660;28;20405;-76
2022/05/09 09:58:49;;;;;;;9.50;2.28;;;26.90;47.90;;;;;;5069436;28;20025;-77
2022/05/09 10:01:25;;;;;;;4.40;2.28;;;27.00;47.90;;;;;;5068415;28;20024;-76
2022/05/09 10:04:10;;;;;;;5.13;2.00;;;26.80;48.00;;;;;;5064291;28;20126;-76
2022/05/09 10:07:01;;;;;;;5.45;2.50;;;27.70;45.60;;;;;;5068458;28;20025;-76
2022/05/09 10:09:29;;;;;;;7.25;2.40;;;27.50;45.40;;;;;;5068406;28;20025;-77
2022/05/09 10:12:18;;;;;;;5.88;2.22;;;27.70;44.40;;;;;;5068266;28;20052;-77
2022/05/09 10:14:45;;;;;;;6.63;1.90;;;28.10;46.00;;;;;;5068439;28;20025;-76
2022/05/09 10:17:26;;;;;;;4.22;2.25;;;29.10;43.20;;;;;;5070374;28;20096;-77
2022/05/09 10:19:54;;;;;;;7.35;2.65;;;28.40;43.10;;;;;;5071840;28;20028;-77
2022/05/09 10:25:17;;;;;;;4.35;2.13;;;29.40;40.10;;;;;;5068116;28;20077;-77
2022/05/09 10:27:44;;;;;;;4.43;2.20;;;29.70;40.90;;;;;;5065841;28;20042;-77
2022/05/09 10:30:29;;;;;;;3.97;1.98;;;29.30;40.90;;;;;;5072370;28;20025;-77
2022/05/09 10:33:09;;;;;;;4.10;2.08;;;29.10;39.00;;;;;;5071861;28;20470;-77
2022/05/09 10:35:44;;;;;;;6.72;2.00;;;28.80;42.70;;;;;;5070005;28;20048;-77
2022/05/09 10:38:37;;;;;;;5.32;2.30;;;29.00;43.20;;;;;;5072045;28;20047;-77
2022/05/09 10:41:31;;;;;;;5.35;2.28;;;29.70;40.50;;;;;;5071765;28;20013;-76
2022/05/09 10:44:03;;;;;;;7.20;2.53;;;28.20;41.20;;;;;;5059472;28;20362;-76
2022/05/09 10:46:51;;;;;;;5.95;2.30;;;28.50;40.40;;;;;;5071855;28;20739;-75
2022/05/09 10:49:41;;;;;;;4.90;2.05;;;28.90;41.50;;;;;;5071566;28;20009;-76
2022/05/09 10:52:28;;;;;;;4.07;1.75;;;28.90;41.50;;;;;;5071576;28;20032;-76
2022/05/09 10:55:12;;;;;;;5.03;2.00;;;28.60;43.20;;;;;;5064346;28;20576;-76
2022/05/09 10:58:06;;;;;;;3.75;1.77;;;29.20;42.10;;;;;;5064588;28;20111;-76
2022/05/09 11:00:35;;;;;;;7.20;2.42;;;28.70;41.20;;;;;;5055726;28;20496;-76
2022/05/09 11:03:08;;;;;;;3.80;2.30;;;28.70;41.20;;;;;;5071323;28;20067;-76
2022/05/09 11:06:12;;;;;;;3.47;1.90;;;28.90;39.10;;;;;;5071292;28;20044;-76
2022/05/09 11:08:52;;;;;;;4.78;2.65;;;28.70;41.30;;;;;;5041556;28;20033;-76
2022/05/09 11:11:36;;;;;;;4.95;2.33;;;29.50;39.70;;;;;;5064685;28;20058;-76
2022/05/09 11:14:11;;;;;;;5.65;2.35;;;30.00;41.10;;;;;;5064462;28;20029;-76
2022/05/09 11:17:04;;;;;;;4.93;2.25;;;30.60;41.20;;;;;;5071207;28;20027;-76
2022/05/09 11:19:32;;;;;;;4.00;2.20;;;29.20;39.30;;;;;;5058362;28;21086;-76
2022/05/09 11:22:23;;;;;;;4.32;1.95;;;30.20;38.90;;;;;;5070014;28;20546;-76
2022/05/09 11:25:17;;;;;;;4.47;2.13;;;30.50;37.70;;;;;;5067321;28;20477;-77
2022/05/09 11:28:09;;;;;;;4.78;2.03;;;29.90;37.50;;;;;;5064718;28;20016;-76
2022/05/09 11:30:39;;;;;;;6.38;2.28;;;30.50;41.50;;;;;;5066280;28;20108;-76
2022/05/09 11:33:30;;;;;;;5.35;2.50;;;29.10;40.60;;;;;;5090828;23;20451;-78
2022/05/09 11:36:19;;;;;;;6.68;2.25;;;28.80;38.80;;;;;;5024795;28;20041;-78
2022/05/09 11:38:51;;;;;;;8.63;2.58;;;28.80;39.80;;;;;;5044143;28;20025;-78
2022/05/09 11:41:35;;;;;;;5.68;2.60;;;28.90;40.20;;;;;;5051883;28;20021;-78
2022/05/09 11:44:18;;;;;;;4.30;2.45;;;27.50;42.70;;;;;;5059263;28;20513;-78
2022/05/09 11:47:07;;;;;;;7.88;3.00;;;28.00;43.40;;;;;;5059861;28;20483;-78
2022/05/09 11:49:36;;;;;;;4.93;2.10;;;28.10;42.70;;;;;;5059252;28;20082;-78
2022/05/09 11:52:23;;;;;;;7.57;2.60;;;28.10;41.80;;;;;;5062866;28;20028;-79
2022/05/09 11:54:50;;;;;;;5.25;2.58;;;28.10;41.90;;;;;;5063142;28;20013;-79
2022/05/09 11:57:30;;;;;;;6.80;2.92;;;28.40;42.80;;;;;;5060945;28;20549;-79
2022/05/09 11:59:59;;;;;;;7.50;3.22;;;28.70;41.90;;;;;;5063065;28;20021;-78
2022/05/09 12:02:45;;;;;;;3.25;2.42;;;28.80;41.20;;;;;;5059347;28;20099;-79
2022/05/09 12:05:26;;;;;;;8.85;2.42;;;29.40;41.10;;;;;;5059149;28;20017;-79
2022/05/09 12:08:16;;;;;;;5.45;2.88;;;29.60;38.50;;;;;;5059287;28;20024;-79
2022/05/09 12:10:51;;;;;;;4.65;2.50;;;29.70;40.40;;;;;;5059405;28;20620;-79
2022/05/09 12:13:19;;;;;;;5.55;2.42;;;29.50;40.40;;;;;;5064016;28;20024;-79
2022/05/09 12:15:56;;;;;;;4.97;3.10;;;27.70;43.40;;;;;;5059634;28;20371;-79
2022/05/09 12:18:51;;;;;;;5.57;3.00;;;28.00;42.20;;;;;;5062205;28;20109;-79
2022/05/09 12:21:22;;;;;;;6.20;3.30;;;28.60;44.00;;;;;;5059142;28;20017;-79
2022/05/09 12:23:48;;;;;;;5.38;2.60;;;29.00;40.80;;;;;;5064964;28;20024;-79
2022/05/09 12:26:30;;;;;;;8.98;2.85;;;28.20;39.70;;;;;;5063040;28;20021;-79
2022/05/09 12:29:17;;;;;;;5.40;3.20;;;27.20;43.10;;;;;;5059090;28;20029;-79
2022/05/09 12:31:56;;;;;;;6.25;3.15;;;26.40;44.80;;;;;;5062454;28;20378;-79
2022/05/09 12:34:36;;;;;;;5.28;3.20;;;26.80;44.50;;;;;;5087214;22;20398;-77
2022/05/09 12:37:03;;;;;;;5.25;3.00;;;26.00;45.70;;;;;;5071387;28;20031;-77
2022/05/09 12:39:33;;;;;;;4.60;2.75;;;26.60;46.90;;;;;;5062451;28;20024;-77
2022/05/09 12:42:12;;;;;;;9.25;2.95;;;26.40;45.80;;;;;;5071185;28;20032;-77
2022/05/09 12:44:44;;;;;;;8.55;3.25;;;27.20;42.80;;;;;;5087543;28;20016;-76
2022/05/09 12:47:34;;;;;;;5.00;2.53;;;28.50;42.20;;;;;;5091593;28;20472;-76
2022/05/09 12:50:15;;;;;;;6.80;3.08;;;29.30;41.20;;;;;;5082288;28;20421;-77
2022/05/09 12:52:52;;;;;;;;;;;30.00;39.10;;;;;;5091684;28;20527;-77
2022/05/09 12:58:20;;;;;;;4.03;2.35;;;29.70;40.30;;;;;;5091787;28;20438;-77
2022/05/09 13:00:48;;;;;;;5.38;2.55;;;30.00;41.20;;;;;;5091354;28;20031;-77
2022/05/09 13:03:15;;;;;;;5.05;2.47;;;31.40;40.90;;;;;;5091204;28;20059;-77
2022/05/09 13:05:43;;;;;;;6.70;2.53;;;31.40;38.00;;;;;;5089986;28;20016;-76
2022/05/09 13:08:10;;;;;;;6.35;3.33;;;31.90;38.90;;;;;;5091227;28;20451;-77
2022/05/09 13:10:55;;;;;;;7.32;3.00;;;32.10;35.90;;;;;;5090762;28;20122;-77
2022/05/09 13:13:30;;;;;;;5.72;3.70;;;31.50;37.40;;;;;;5085655;28;20042;-76
2022/05/09 13:15:57;;;;;;;7.50;3.67;;;31.10;37.30;;;;;;5091152;28;20077;-76
2022/05/09 13:18:26;;;;;;;8.13;3.28;;;30.60;37.70;;;;;;5089841;28;20024;-77
2022/05/09 13:20:58;;;;;;;6.20;3.35;;;30.10;39.90;;;;;;5089821;28;20062;-77
2022/05/09 13:23:42;;;;;;;6.20;2.88;;;29.90;39.70;;;;;;5090228;28;20124;-76
2022/05/09 13:26:17;;;;;;;6.68;3.83;;;29.00;41.40;;;;;;5085239;28;20045;-77
2022/05/09 13:28:48;;;;;;;7.65;3.95;;;28.60;39.90;;;;;;5090766;28;20045;-76